sensor_id;sensor_type;location;lat;lon;timestamp;pressure;altitude;pressure_sealevel;temperature;humidity
18749;BME280;9503;53.560;10.246;2022-10-16T00:01:14;100313.03;;;15.72;100.00
18749;BME280;9503;53.560;10.246;2022-10-16T00:03:43;100301.00;;;15.75;100.00
18749;BME280;9503;53.560;10.246;2022-10-16T00:06:10;100302.53;;;15.66;100.00
18749;BME280;9503;53.560;10.246;2022-10-16T00:08:39;100306.69;;;15.59;100.00
18749;BME280;9503;53.560;10.246;2022-10-16T00:11:08;100310.94;;;15.57;100.00
18749;BME280;9503;53.560;10.246;2022-10-16T00:13:37;100305.72;;;15.56;100.00
18749;BME280;9503;53.560;10.246;2022-10-16T00:16:04;100314.34;;;15.56;100.00
18749;BME280;9503;53.560;10.246;2022-10-16T00:18:31;100318.25;;;15.37;100.00
18749;BME280;9503;53.560;10.246;2022-10-16T00:21:01;100327.78;;;15.40;100.00
18749;BME280;9503;53.560;10.246;2022-10-16T00:23:28;100326.91;;;15.39;100.00
18749;BME280;9503;53.560;10.246;2022-10-16T00:25:58;100315.69;;;15.37;100.00
18749;BME280;9503;53.560;10.246;2022-10-16T00:28:25;100322.56;;;15.37;100.00
18749;BME280;9503;53.560;10.246;2022-10-16T00:30:53;100314.69;;;15.32;100.00
18749;BME280;9503;53.560;10.246;2022-10-16T00:33:20;100326.75;;;15.32;100.00
18749;BME280;9503;53.560;10.246;2022-10-16T00:35:47;100325.03;;;15.32;100.00
18749;BME280;9503;53.560;10.246;2022-10-16T00:38:13;100322.44;;;15.32;100.00
18749;BME280;9503;53.560;10.246;2022-10-16T00:40:40;100328.41;;;15.28;100.00
18749;BME280;9503;53.560;10.246;2022-10-16T00:43:12;100330.97;;;15.28;100.00
18749;BME280;9503;53.560;10.246;2022-10-16T00:45:39;100332.44;;;15.17;100.00
18749;BME280;9503;53.560;10.246;2022-10-16T00:48:11;100322.84;;;15.13;100.00
18749;BME280;9503;53.560;10.246;2022-10-16T00:50:39;100329.66;;;15.08;100.00
18749;BME280;9503;53.560;10.246;2022-10-16T00:53:08;100342.34;;;14.99;100.00
18749;BME280;9503;53.560;10.246;2022-10-16T00:55:35;100332.88;;;14.99;100.00
18749;BME280;9503;53.560;10.246;2022-10-16T00:58:02;100334.66;;;15.02;100.00
18749;BME280;9503;53.560;10.246;2022-10-16T01:00:30;100340.50;;;14.95;100.00
18749;BME280;9503;53.560;10.246;2022-10-16T01:02:58;100331.75;;;14.88;100.00
18749;BME280;9503;53.560;10.246;2022-10-16T01:05:31;100339.63;;;14.92;100.00
18749;BME280;9503;53.560;10.246;2022-10-16T01:08:04;100347.41;;;14.96;100.00
18749;BME280;9503;53.560;10.246;2022-10-16T01:10:37;100342.75;;;14.81;100.00
18749;BME280;9503;53.560;10.246;2022-10-16T01:13:06;100344.44;;;14.79;100.00
18749;BME280;9503;53.560;10.246;2022-10-16T01:15:37;100345.56;;;14.90;100.00
18749;BME280;9503;53.560;10.246;2022-10-16T01:18:11;100342.91;;;14.87;100.00
18749;BME280;9503;53.560;10.246;2022-10-16T01:20:42;100347.19;;;14.86;100.00
18749;BME280;9503;53.560;10.246;2022-10-16T01:23:21;100352.91;;;14.75;100.00
18749;BME280;9503;53.560;10.246;2022-10-16T01:28:51;100353.59;;;14.68;100.00
18749;BME280;9503;53.560;10.246;2022-10-16T01:31:24;100361.28;;;14.64;100.00
18749;BME280;9503;53.560;10.246;2022-10-16T01:33:56;100361.47;;;14.72;100.00
18749;BME280;9503;53.560;10.246;2022-10-16T01:36:27;100366.75;;;14.77;100.00
18749;BME280;9503;53.560;10.246;2022-10-16T01:39:00;100371.44;;;14.58;100.00
18749;BME280;9503;53.560;10.246;2022-10-16T01:41:31;100361.31;;;14.66;100.00
18749;BME280;9503;53.560;10.246;2022-10-16T01:44:05;100357.22;;;14.74;100.00
18749;BME280;9503;53.560;10.246;2022-10-16T01:46:36;100364.84;;;14.70;100.00
18749;BME280;9503;53.560;10.246;2022-10-16T01:49:03;100361.63;;;14.78;100.00
18749;BME280;9503;53.560;10.246;2022-10-16T01:51:32;100368.03;;;14.61;100.00
18749;BME280;9503;53.560;10.246;2022-10-16T01:54:01;100358.72;;;14.66;99.81
18749;BME280;9503;53.560;10.246;2022-10-16T01:56:29;100356.16;;;14.66;99.47
18749;BME280;9503;53.560;10.246;2022-10-16T01:58:59;100364.47;;;14.54;99.69
18749;BME280;9503;53.560;10.246;2022-10-16T02:01:31;100360.88;;;14.49;100.00
18749;BME280;9503;53.560;10.246;2022-10-16T02:04:02;100364.72;;;14.65;99.08
18749;BME280;9503;53.560;10.246;2022-10-16T02:06:31;100362.81;;;14.58;99.43
18749;BME280;9503;53.560;10.246;2022-10-16T02:08:59;100365.34;;;14.55;99.39
18749;BME280;9503;53.560;10.246;2022-10-16T02:11:25;100360.03;;;14.50;99.65
18749;BME280;9503;53.560;10.246;2022-10-16T02:13:55;100374.44;;;14.44;98.94
18749;BME280;9503;53.560;10.246;2022-10-16T02:16:34;100365.94;;;14.46;98.83
18749;BME280;9503;53.560;10.246;2022-10-16T02:19:01;100369.88;;;14.33;99.02
18749;BME280;9503;53.560;10.246;2022-10-16T02:21:29;100365.28;;;14.23;99.95
18749;BME280;9503;53.560;10.246;2022-10-16T02:24:03;100360.47;;;14.35;98.35
18749;BME280;9503;53.560;10.246;2022-10-16T02:26:35;100365.78;;;14.10;98.55
18749;BME280;9503;53.560;10.246;2022-10-16T02:29:08;100359.75;;;14.09;99.37
18749;BME280;9503;53.560;10.246;2022-10-16T02:31:41;100361.13;;;14.28;98.12
18749;BME280;9503;53.560;10.246;2022-10-16T02:34:10;100364.84;;;14.38;97.78
18749;BME280;9503;53.560;10.246;2022-10-16T02:36:39;100363.78;;;14.31;97.74
18749;BME280;9503;53.560;10.246;2022-10-16T02:39:07;100369.88;;;14.33;97.47
18749;BME280;9503;53.560;10.246;2022-10-16T02:41:34;100376.44;;;14.22;97.26
18749;BME280;9503;53.560;10.246;2022-10-16T02:44:01;100364.97;;;14.11;98.19
18749;BME280;9503;53.560;10.246;2022-10-16T02:46:28;100368.88;;;14.28;96.83
18749;BME280;9503;53.560;10.246;2022-10-16T02:48:56;100369.16;;;14.07;97.44
18749;BME280;9503;53.560;10.246;2022-10-16T02:51:22;100363.16;;;14.08;97.91
18749;BME280;9503;53.560;10.246;2022-10-16T02:53:49;100360.09;;;14.22;97.17
18749;BME280;9503;53.560;10.246;2022-10-16T02:56:16;100354.91;;;14.20;96.95
18749;BME280;9503;53.560;10.246;2022-10-16T02:58:42;100357.63;;;13.95;97.42
18749;BME280;9503;53.560;10.246;2022-10-16T03:01:09;100368.50;;;13.85;98.35
18749;BME280;9503;53.560;10.246;2022-10-16T03:03:37;100365.63;;;14.04;97.77
18749;BME280;9503;53.560;10.246;2022-10-16T03:06:05;100377.69;;;14.05;97.23
18749;BME280;9503;53.560;10.246;2022-10-16T03:08:32;100369.34;;;14.14;97.00
18749;BME280;9503;53.560;10.246;2022-10-16T03:10:58;100365.63;;;14.04;96.84
18749;BME280;9503;53.560;10.246;2022-10-16T03:13:25;100369.81;;;13.70;98.34
18749;BME280;9503;53.560;10.246;2022-10-16T03:15:52;100365.13;;;13.87;98.36
18749;BME280;9503;53.560;10.246;2022-10-16T03:18:18;100362.06;;;13.70;98.27
18749;BME280;9503;53.560;10.246;2022-10-16T03:20:45;100370.34;;;13.89;98.58
18749;BME280;9503;53.560;10.246;2022-10-16T03:23:13;100364.19;;;13.83;98.03
18749;BME280;9503;53.560;10.246;2022-10-16T03:25:40;100365.75;;;13.78;98.37
18749;BME280;9503;53.560;10.246;2022-10-16T03:28:06;100372.72;;;13.81;98.50
18749;BME280;9503;53.560;10.246;2022-10-16T03:30:33;100365.56;;;13.72;98.96
18749;BME280;9503;53.560;10.246;2022-10-16T03:33:00;100371.81;;;13.80;98.39
18749;BME280;9503;53.560;10.246;2022-10-16T03:35:26;100364.84;;;13.76;98.77
18749;BME280;9503;53.560;10.246;2022-10-16T03:37:53;100357.78;;;13.71;98.23
18749;BME280;9503;53.560;10.246;2022-10-16T03:40:21;100357.19;;;13.79;98.32
18749;BME280;9503;53.560;10.246;2022-10-16T03:42:47;100362.91;;;13.69;99.15
18749;BME280;9503;53.560;10.246;2022-10-16T03:45:14;100365.63;;;13.74;98.78
18749;BME280;9503;53.560;10.246;2022-10-16T03:47:41;100369.22;;;13.80;98.06
18749;BME280;9503;53.560;10.246;2022-10-16T03:50:07;100380.19;;;13.73;98.37
18749;BME280;9503;53.560;10.246;2022-10-16T03:52:34;100373.34;;;13.74;98.40
18749;BME280;9503;53.560;10.246;2022-10-16T03:55:01;100378.56;;;13.75;98.51
18749;BME280;9503;53.560;10.246;2022-10-16T03:57:29;100379.16;;;13.67;98.59
18749;BME280;9503;53.560;10.246;2022-10-16T03:59:55;100380.38;;;13.79;98.32
18749;BME280;9503;53.560;10.246;2022-10-16T04:02:22;100378.63;;;13.78;97.94
18749;BME280;9503;53.560;10.246;2022-10-16T04:04:49;100379.72;;;13.87;97.85
18749;BME280;9503;53.560;10.246;2022-10-16T04:07:15;100389.19;;;13.88;97.02
18749;BME280;9503;53.560;10.246;2022-10-16T04:09:42;100388.94;;;13.78;97.57
18749;BME280;9503;53.560;10.246;2022-10-16T04:12:09;100389.06;;;13.83;97.38
18749;BME280;9503;53.560;10.246;2022-10-16T04:14:36;100395.25;;;13.88;97.08
18749;BME280;9503;53.560;10.246;2022-10-16T04:17:03;100403.22;;;13.67;98.06
18749;BME280;9503;53.560;10.246;2022-10-16T04:19:30;100411.44;;;13.55;98.53
18749;BME280;9503;53.560;10.246;2022-10-16T04:21:56;100401.13;;;13.55;98.66
18749;BME280;9503;53.560;10.246;2022-10-16T04:24:23;100411.69;;;13.65;98.51
18749;BME280;9503;53.560;10.246;2022-10-16T04:26:49;100411.22;;;13.49;99.04
18749;BME280;9503;53.560;10.246;2022-10-16T04:29:16;100415.56;;;13.50;98.80
18749;BME280;9503;53.560;10.246;2022-10-16T04:31:44;100416.22;;;13.72;98.10
18749;BME280;9503;53.560;10.246;2022-10-16T04:34:10;100421.69;;;13.54;98.19
18749;BME280;9503;53.560;10.246;2022-10-16T04:36:37;100415.94;;;13.63;98.23
18749;BME280;9503;53.560;10.246;2022-10-16T04:39:03;100419.00;;;13.51;97.77
18749;BME280;9503;53.560;10.246;2022-10-16T04:41:30;100419.19;;;13.57;98.24
18749;BME280;9503;53.560;10.246;2022-10-16T04:43:57;100418.38;;;13.58;97.87
18749;BME280;9503;53.560;10.246;2022-10-16T04:46:23;100431.72;;;13.45;98.41
18749;BME280;9503;53.560;10.246;2022-10-16T04:48:51;100433.59;;;13.50;98.33
18749;BME280;9503;53.560;10.246;2022-10-16T04:51:19;100437.03;;;13.24;99.20
18749;BME280;9503;53.560;10.246;2022-10-16T04:53:45;100439.28;;;13.40;98.83
18749;BME280;9503;53.560;10.246;2022-10-16T04:56:12;100436.03;;;13.46;98.57
18749;BME280;9503;53.560;10.246;2022-10-16T04:58:40;100440.34;;;13.47;98.10
18749;BME280;9503;53.560;10.246;2022-10-16T05:01:06;100443.81;;;13.47;98.25
18749;BME280;9503;53.560;10.246;2022-10-16T05:03:33;100433.59;;;13.50;98.30
18749;BME280;9503;53.560;10.246;2022-10-16T05:06:01;100437.09;;;13.52;98.32
18749;BME280;9503;53.560;10.246;2022-10-16T05:08:29;100427.28;;;13.41;98.12
18749;BME280;9503;53.560;10.246;2022-10-16T05:10:55;100439.44;;;13.45;98.30
18749;BME280;9503;53.560;10.246;2022-10-16T05:13:22;100447.72;;;13.11;100.00
18749;BME280;9503;53.560;10.246;2022-10-16T05:15:49;100450.28;;;13.36;99.25
18749;BME280;9503;53.560;10.246;2022-10-16T05:18:16;100455.69;;;13.44;98.58
18749;BME280;9503;53.560;10.246;2022-10-16T05:20:42;100463.13;;;13.35;98.97
18749;BME280;9503;53.560;10.246;2022-10-16T05:23:10;100454.78;;;13.42;98.50
18749;BME280;9503;53.560;10.246;2022-10-16T05:25:37;100467.19;;;13.28;99.02
18749;BME280;9503;53.560;10.246;2022-10-16T05:28:04;100465.03;;;13.15;99.67
18749;BME280;9503;53.560;10.246;2022-10-16T05:30:30;100472.59;;;13.10;100.00
18749;BME280;9503;53.560;10.246;2022-10-16T05:32:57;100470.00;;;13.10;100.00
18749;BME280;9503;53.560;10.246;2022-10-16T05:35:23;100479.06;;;13.23;100.00
18749;BME280;9503;53.560;10.246;2022-10-16T05:37:50;100478.03;;;13.19;100.00
18749;BME280;9503;53.560;10.246;2022-10-16T05:40:18;100485.91;;;13.22;99.63
18749;BME280;9503;53.560;10.246;2022-10-16T05:42:45;100479.13;;;13.00;100.00
18749;BME280;9503;53.560;10.246;2022-10-16T05:45:11;100476.22;;;13.15;100.00
18749;BME280;9503;53.560;10.246;2022-10-16T05:47:38;100483.25;;;13.21;100.00
18749;BME280;9503;53.560;10.246;2022-10-16T05:50:05;100473.28;;;13.06;100.00
18749;BME280;9503;53.560;10.246;2022-10-16T05:52:32;100474.06;;;13.04;100.00
18749;BME280;9503;53.560;10.246;2022-10-16T05:54:58;100475.94;;;13.08;100.00
18749;BME280;9503;53.560;10.246;2022-10-16T05:57:26;100473.56;;;13.14;100.00
18749;BME280;9503;53.560;10.246;2022-10-16T05:59:53;100480.78;;;13.22;100.00
18749;BME280;9503;53.560;10.246;2022-10-16T06:02:19;100484.09;;;13.20;100.00
18749;BME280;9503;53.560;10.246;2022-10-16T06:04:46;100490.22;;;13.23;100.00
18749;BME280;9503;53.560;10.246;2022-10-16T06:07:13;100493.31;;;13.39;99.87
18749;BME280;9503;53.560;10.246;2022-10-16T06:09:39;100492.56;;;13.43;99.32
18749;BME280;9503;53.560;10.246;2022-10-16T06:12:06;100496.13;;;13.46;99.28
18749;BME280;9503;53.560;10.246;2022-10-16T06:14:34;100485.16;;;13.52;98.62
18749;BME280;9503;53.560;10.246;2022-10-16T06:17:01;100487.84;;;13.55;98.18
18749;BME280;9503;53.560;10.246;2022-10-16T06:19:27;100504.00;;;13.51;98.19
18749;BME280;9503;53.560;10.246;2022-10-16T06:21:54;100498.41;;;13.37;98.86
18749;BME280;9503;53.560;10.246;2022-10-16T06:24:23;100501.03;;;13.39;99.01
18749;BME280;9503;53.560;10.246;2022-10-16T06:26:49;100498.72;;;13.46;98.86
18749;BME280;9503;53.560;10.246;2022-10-16T06:29:16;100504.75;;;13.47;98.53
18749;BME280;9503;53.560;10.246;2022-10-16T06:31:44;100507.31;;;13.47;98.65
18749;BME280;9503;53.560;10.246;2022-10-16T06:34:11;100505.63;;;13.47;98.51
18749;BME280;9503;53.560;10.246;2022-10-16T06:36:39;100513.28;;;13.46;98.44
18749;BME280;9503;53.560;10.246;2022-10-16T06:39:06;100517.31;;;13.38;99.20
18749;BME280;9503;53.560;10.246;2022-10-16T06:41:33;100506.41;;;13.45;99.00
18749;BME280;9503;53.560;10.246;2022-10-16T06:44:00;100509.94;;;13.48;99.00
18749;BME280;9503;53.560;10.246;2022-10-16T06:46:26;100516.00;;;13.50;99.37
18749;BME280;9503;53.560;10.246;2022-10-16T06:48:54;100516.94;;;13.52;99.40
18749;BME280;9503;53.560;10.246;2022-10-16T06:51:23;100531.78;;;13.60;99.35
18749;BME280;9503;53.560;10.246;2022-10-16T06:53:51;100527.13;;;13.75;99.55
18749;BME280;9503;53.560;10.246;2022-10-16T06:56:20;100530.78;;;13.81;98.73
18749;BME280;9503;53.560;10.246;2022-10-16T06:58:47;100530.91;;;13.86;98.61
18749;BME280;9503;53.560;10.246;2022-10-16T07:01:15;100525.34;;;14.01;98.42
18749;BME280;9503;53.560;10.246;2022-10-16T07:03:43;100529.34;;;14.18;98.08
18749;BME280;9503;53.560;10.246;2022-10-16T07:06:13;100523.31;;;14.18;98.11
18749;BME280;9503;53.560;10.246;2022-10-16T07:08:41;100534.94;;;14.33;98.28
18749;BME280;9503;53.560;10.246;2022-10-16T07:11:10;100539.97;;;14.57;97.65
18749;BME280;9503;53.560;10.246;2022-10-16T07:13:38;100543.56;;;14.62;97.33
18749;BME280;9503;53.560;10.246;2022-10-16T07:16:05;100540.25;;;14.68;96.63
18749;BME280;9503;53.560;10.246;2022-10-16T07:18:32;100544.28;;;14.58;97.68
18749;BME280;9503;53.560;10.246;2022-10-16T07:21:03;100546.88;;;14.88;96.98
18749;BME280;9503;53.560;10.246;2022-10-16T07:23:32;100554.28;;;15.08;95.78
18749;BME280;9503;53.560;10.246;2022-10-16T07:25:58;100557.72;;;15.07;95.72
18749;BME280;9503;53.560;10.246;2022-10-16T07:28:25;100569.69;;;15.36;94.83
18749;BME280;9503;53.560;10.246;2022-10-16T07:30:52;100572.81;;;15.25;95.47
18749;BME280;9503;53.560;10.246;2022-10-16T07:33:18;100568.59;;;14.97;96.93
18749;BME280;9503;53.560;10.246;2022-10-16T07:35:49;100581.47;;;15.27;96.95
18749;BME280;9503;53.560;10.246;2022-10-16T07:38:16;100573.16;;;15.37;96.93
18749;BME280;9503;53.560;10.246;2022-10-16T07:40:44;100581.88;;;15.42;95.31
18749;BME280;9503;53.560;10.246;2022-10-16T07:43:11;100588.34;;;15.92;93.64
18749;BME280;9503;53.560;10.246;2022-10-16T07:45:46;100594.84;;;15.77;92.81
18749;BME280;9503;53.560;10.246;2022-10-16T07:48:13;100597.59;;;15.83;92.55
18749;BME280;9503;53.560;10.246;2022-10-16T07:50:40;100606.22;;;15.83;93.26
18749;BME280;9503;53.560;10.246;2022-10-16T07:53:07;100602.53;;;15.72;94.13
18749;BME280;9503;53.560;10.246;2022-10-16T07:55:34;100606.00;;;15.74;94.61
18749;BME280;9503;53.560;10.246;2022-10-16T07:58:02;100613.34;;;15.59;95.20
18749;BME280;9503;53.560;10.246;2022-10-16T08:00:28;100608.63;;;15.42;96.07
18749;BME280;9503;53.560;10.246;2022-10-16T08:02:56;100618.09;;;15.43;96.65
18749;BME280;9503;53.560;10.246;2022-10-16T08:05:25;100620.34;;;15.96;95.15
18749;BME280;9503;53.560;10.246;2022-10-16T08:07:51;100616.00;;;15.95;94.67
18749;BME280;9503;53.560;10.246;2022-10-16T08:10:20;100614.47;;;16.39;93.65
18749;BME280;9503;53.560;10.246;2022-10-16T08:12:47;100619.03;;;16.51;92.39
18749;BME280;9503;53.560;10.246;2022-10-16T08:15:15;100609.34;;;16.42;92.48
18749;BME280;9503;53.560;10.246;2022-10-16T08:17:42;100611.00;;;16.39;91.84
18749;BME280;9503;53.560;10.246;2022-10-16T08:20:10;100622.78;;;16.26;92.12
18749;BME280;9503;53.560;10.246;2022-10-16T08:22:37;100630.41;;;16.20;93.57
18749;BME280;9503;53.560;10.246;2022-10-16T08:25:04;100629.84;;;16.33;93.21
18749;BME280;9503;53.560;10.246;2022-10-16T08:27:31;100629.78;;;15.94;93.22
18749;BME280;9503;53.560;10.246;2022-10-16T08:29:58;100626.59;;;15.71;95.24
18749;BME280;9503;53.560;10.246;2022-10-16T08:32:26;100632.88;;;15.81;95.17
18749;BME280;9503;53.560;10.246;2022-10-16T08:34:52;100626.28;;;15.60;94.95
18749;BME280;9503;53.560;10.246;2022-10-16T08:37:19;100624.16;;;15.77;94.66
18749;BME280;9503;53.560;10.246;2022-10-16T08:39:45;100627.88;;;15.87;94.31
18749;BME280;9503;53.560;10.246;2022-10-16T08:42:22;100636.03;;;16.03;94.16
18749;BME280;9503;53.560;10.246;2022-10-16T08:45:02;100640.03;;;15.91;94.47
18749;BME280;9503;53.560;10.246;2022-10-16T08:47:44;100632.69;;;16.08;94.19
18749;BME280;9503;53.560;10.246;2022-10-16T08:50:14;100632.84;;;16.14;93.97
18749;BME280;9503;53.560;10.246;2022-10-16T08:52:44;100633.28;;;16.32;93.14
18749;BME280;9503;53.560;10.246;2022-10-16T08:55:24;100623.09;;;16.40;91.81
18749;BME280;9503;53.560;10.246;2022-10-16T08:57:54;100629.63;;;16.62;91.76
18749;BME280;9503;53.560;10.246;2022-10-16T09:00:21;100630.84;;;16.76;90.68
18749;BME280;9503;53.560;10.246;2022-10-16T09:02:54;100636.53;;;16.61;90.98
18749;BME280;9503;53.560;10.246;2022-10-16T09:08:30;100645.84;;;16.91;90.13
18749;BME280;9503;53.560;10.246;2022-10-16T09:11:07;100650.84;;;17.25;88.29
18749;BME280;9503;53.560;10.246;2022-10-16T09:13:43;100657.72;;;17.25;89.15
18749;BME280;9503;53.560;10.246;2022-10-16T09:16:17;100659.94;;;17.49;88.20
18749;BME280;9503;53.560;10.246;2022-10-16T09:18:53;100654.78;;;17.50;87.49
18749;BME280;9503;53.560;10.246;2022-10-16T09:21:23;100663.88;;;17.74;86.78
18749;BME280;9503;53.560;10.246;2022-10-16T09:23:51;100669.91;;;17.71;86.13
18749;BME280;9503;53.560;10.246;2022-10-16T09:26:18;100665.53;;;17.70;86.09
18749;BME280;9503;53.560;10.246;2022-10-16T09:28:47;100675.69;;;17.59;84.74
18749;BME280;9503;53.560;10.246;2022-10-16T09:31:17;100678.94;;;17.93;85.33
18749;BME280;9503;53.560;10.246;2022-10-16T09:33:48;100681.31;;;18.32;82.63
18749;BME280;9503;53.560;10.246;2022-10-16T09:36:16;100683.03;;;18.30;83.33
18749;BME280;9503;53.560;10.246;2022-10-16T09:38:43;100686.91;;;18.05;83.21
18749;BME280;9503;53.560;10.246;2022-10-16T09:41:16;100682.47;;;17.98;82.45
18749;BME280;9503;53.560;10.246;2022-10-16T09:43:48;100684.91;;;17.89;83.51
18749;BME280;9503;53.560;10.246;2022-10-16T09:46:25;100681.53;;;17.93;83.54
18749;BME280;9503;53.560;10.246;2022-10-16T09:48:54;100686.38;;;18.23;82.83
18749;BME280;9503;53.560;10.246;2022-10-16T09:51:24;100683.06;;;18.35;81.99
18749;BME280;9503;53.560;10.246;2022-10-16T09:53:55;100694.31;;;18.34;82.12
18749;BME280;9503;53.560;10.246;2022-10-16T09:56:24;100694.75;;;18.61;80.00
18749;BME280;9503;53.560;10.246;2022-10-16T09:58:52;100696.47;;;18.61;80.34
18749;BME280;9503;53.560;10.246;2022-10-16T10:01:20;100697.50;;;18.16;81.10
18749;BME280;9503;53.560;10.246;2022-10-16T10:03:47;100704.69;;;18.34;80.99
18749;BME280;9503;53.560;10.246;2022-10-16T10:06:27;100706.78;;;18.56;80.46
18749;BME280;9503;53.560;10.246;2022-10-16T10:08:56;100707.88;;;18.69;78.86
18749;BME280;9503;53.560;10.246;2022-10-16T10:11:38;100708.72;;;18.66;79.05
18749;BME280;9503;53.560;10.246;2022-10-16T10:14:06;100720.25;;;18.87;78.24
18749;BME280;9503;53.560;10.246;2022-10-16T10:16:36;100724.16;;;18.60;79.12
18749;BME280;9503;53.560;10.246;2022-10-16T10:19:03;100716.53;;;18.68;78.26
18749;BME280;9503;53.560;10.246;2022-10-16T10:21:32;100726.00;;;19.28;77.21
18749;BME280;9503;53.560;10.246;2022-10-16T10:23:59;100729.50;;;18.66;77.22
18749;BME280;9503;53.560;10.246;2022-10-16T10:26:28;100729.22;;;19.09;76.68
18749;BME280;9503;53.560;10.246;2022-10-16T10:29:02;100726.91;;;19.31;75.87
18749;BME280;9503;53.560;10.246;2022-10-16T10:31:38;100728.94;;;19.54;75.87
18749;BME280;9503;53.560;10.246;2022-10-16T10:34:23;100716.38;;;19.21;75.08
18749;BME280;9503;53.560;10.246;2022-10-16T10:37:00;100725.94;;;19.23;74.11
18749;BME280;9503;53.560;10.246;2022-10-16T10:39:32;100726.44;;;19.62;73.91
18749;BME280;9503;53.560;10.246;2022-10-16T10:42:12;100723.41;;;19.29;74.62
18749;BME280;9503;53.560;10.246;2022-10-16T10:44:55;100732.63;;;19.73;74.36
18749;BME280;9503;53.560;10.246;2022-10-16T10:47:34;100741.66;;;20.05;72.72
18749;BME280;9503;53.560;10.246;2022-10-16T10:50:12;100744.84;;;19.80;72.79
18749;BME280;9503;53.560;10.246;2022-10-16T10:52:53;100737.75;;;19.64;72.40
18749;BME280;9503;53.560;10.246;2022-10-16T10:55:31;100737.25;;;19.27;73.16
18749;BME280;9503;53.560;10.246;2022-10-16T11:00:56;100747.88;;;20.23;71.69
18749;BME280;9503;53.560;10.246;2022-10-16T11:03:40;100749.47;;;20.07;70.93
18749;BME280;9503;53.560;10.246;2022-10-16T11:06:12;100734.94;;;20.32;70.92
18749;BME280;9503;53.560;10.246;2022-10-16T11:08:44;100744.09;;;20.90;69.82
18749;BME280;9503;53.560;10.246;2022-10-16T11:11:17;100750.81;;;20.58;68.85
18749;BME280;9503;53.560;10.246;2022-10-16T11:13:53;100744.91;;;19.86;70.26
18749;BME280;9503;53.560;10.246;2022-10-16T11:16:23;100745.16;;;19.36;71.68
18749;BME280;9503;53.560;10.246;2022-10-16T11:18:58;100749.81;;;20.42;69.32
18749;BME280;9503;53.560;10.246;2022-10-16T11:21:29;100745.16;;;20.12;68.47
18749;BME280;9503;53.560;10.246;2022-10-16T11:24:01;100752.88;;;20.00;69.58
18749;BME280;9503;53.560;10.246;2022-10-16T11:26:34;100746.16;;;20.23;68.35
18749;BME280;9503;53.560;10.246;2022-10-16T11:29:03;100745.38;;;20.33;67.54
18749;BME280;9503;53.560;10.246;2022-10-16T11:31:36;100751.28;;;20.14;68.14
18749;BME280;9503;53.560;10.246;2022-10-16T11:34:10;100753.00;;;20.13;68.31
18749;BME280;9503;53.560;10.246;2022-10-16T11:36:46;100756.25;;;19.91;68.00
18749;BME280;9503;53.560;10.246;2022-10-16T11:39:21;100763.31;;;20.03;68.09
18749;BME280;9503;53.560;10.246;2022-10-16T11:41:51;100762.59;;;20.18;66.69
18749;BME280;9503;53.560;10.246;2022-10-16T11:44:27;100767.38;;;20.64;66.51
18749;BME280;9503;53.560;10.246;2022-10-16T11:47:03;100777.81;;;20.69;66.74
18749;BME280;9503;53.560;10.246;2022-10-16T11:49:36;100765.81;;;20.91;66.10
18749;BME280;9503;53.560;10.246;2022-10-16T11:52:07;100774.34;;;20.65;66.04
18749;BME280;9503;53.560;10.246;2022-10-16T11:54:45;100789.25;;;20.88;65.89
18749;BME280;9503;53.560;10.246;2022-10-16T11:57:17;100783.47;;;20.25;67.10
18749;BME280;9503;53.560;10.246;2022-10-16T11:59:50;100789.34;;;20.03;68.53
18749;BME280;9503;53.560;10.246;2022-10-16T12:02:43;100792.59;;;20.68;66.46
18749;BME280;9503;53.560;10.246;2022-10-16T12:05:21;100790.34;;;20.17;67.00
18749;BME280;9503;53.560;10.246;2022-10-16T12:07:56;100800.84;;;20.25;67.67
18749;BME280;9503;53.560;10.246;2022-10-16T12:10:29;100801.00;;;20.41;66.40
18749;BME280;9503;53.560;10.246;2022-10-16T12:13:02;100795.53;;;20.14;66.64
18749;BME280;9503;53.560;10.246;2022-10-16T12:15:31;100802.34;;;20.03;67.35
18749;BME280;9503;53.560;10.246;2022-10-16T12:17:58;100795.13;;;19.77;68.22
18749;BME280;9503;53.560;10.246;2022-10-16T12:20:28;100796.91;;;19.80;68.55
18749;BME280;9503;53.560;10.246;2022-10-16T12:22:59;100815.69;;;19.57;67.86
18749;BME280;9503;53.560;10.246;2022-10-16T12:25:30;100820.66;;;19.42;67.82
18749;BME280;9503;53.560;10.246;2022-10-16T12:28:00;100821.16;;;19.17;69.03
18749;BME280;9503;53.560;10.246;2022-10-16T12:30:30;100830.00;;;19.29;68.98
18749;BME280;9503;53.560;10.246;2022-10-16T12:32:58;100819.78;;;19.42;69.59
18749;BME280;9503;53.560;10.246;2022-10-16T12:35:29;100823.59;;;19.03;68.88
18749;BME280;9503;53.560;10.246;2022-10-16T12:38:05;100835.72;;;19.65;67.79
18749;BME280;9503;53.560;10.246;2022-10-16T12:40:36;100840.09;;;19.67;66.93
18749;BME280;9503;53.560;10.246;2022-10-16T12:43:34;100842.78;;;19.75;66.22
18749;BME280;9503;53.560;10.246;2022-10-16T12:46:05;100841.13;;;19.81;66.43
18749;BME280;9503;53.560;10.246;2022-10-16T12:48:32;100846.22;;;19.72;65.71
18749;BME280;9503;53.560;10.246;2022-10-16T12:51:10;100856.66;;;19.13;67.48
18749;BME280;9503;53.560;10.246;2022-10-16T12:53:37;100850.06;;;19.37;67.22
18749;BME280;9503;53.560;10.246;2022-10-16T12:56:16;100861.19;;;19.28;67.33
18749;BME280;9503;53.560;10.246;2022-10-16T12:58:54;100863.94;;;19.37;67.41
18749;BME280;9503;53.560;10.246;2022-10-16T13:01:32;100866.97;;;19.68;66.46
18749;BME280;9503;53.560;10.246;2022-10-16T13:04:23;100867.72;;;20.27;64.93
18749;BME280;9503;53.560;10.246;2022-10-16T13:06:58;100881.97;;;20.61;63.62
18749;BME280;9503;53.560;10.246;2022-10-16T13:09:38;100875.28;;;20.88;63.33